航空気象通報

ウインドサーファーのための航空気象通報による風予報です。

2/28-2/29の航空気象通報(国内、海外)

2012年02月29日 00時05分31秒 | TAF

羽田空港
TAF RJTT 280843Z 2809/2912 08010KT 9999 FEW030 BKN050
      BECMG 2812/2814 05010KT
      TEMPO 2821/2903 36018G28KT 1500 SN FEW003 BKN005
      TEMPO 2903/2906 36020G30KT 3000 -RASN FEW003 BKN008
      TEMPO 2906/2909 36020G30KT
日本時間28日18-21時:080度から10ノットの風
21-23時:風が変化
23時-29日21時:050度から10ノットの風
但し、29日06-12時の間:ときどき360度から18ノット、突風28ノット
但し、29日12-18時の間:ときどき360度から20ノット、突風30ノット

但し、29日06-12時の間:ときどき
但し、29日12-15時の間:ときどき

静岡空港
TAF RJNS 280841Z 2809/2912 05004KT 9999 FEW020 BKN050
      BECMG 2818/2821 4000 -RA BR
      TEMPO 2818/2824 3000 -RA BR FEW004 BKN007
      BECMG 2900/2903 8000 NSW
日本時間28日18時-29日21時:050度から4ノットの風
、29日03-06時の後、
29日09-12時の後、

福岡空港
TAF AMD RJFF 281227Z 2812/2912 05007KT 4000 SNRA FEW005 SCT015 BKN025
      TEMPO 2812/2818 0800 SN FEW003 BKN008 BKN015
      BECMG 2818/2821 9000 NSW
日本時間28日21時-29日21時:050度から7ノットの風

但し、28日21時-29日03時の間:ときどき
29日03-06時の後、

那覇空港
TAF AMD ROAH 281054Z 2810/2912 35015KT 9999 FEW015 BKN040
日本時間28日18時-29日21時:350度から15ノットの風

(番外編)石垣空港
TAF ROIG 281442Z 2815/2918 02009KT 9999 FEW020 BKN045
日本時間28日18時-29日21時:020度から9ノットの風

マウイのカフルイ空港
TAF PHOG 281131Z 2812/2912 10006KT P6SM FEW045
     FM282000 06017G28KT P6SM FEW035 SCT060
     FM290600 10008KT P6SM SCT050
      AMD LTD TO WX VIS AND WIND TIL 281600
ハワイ時間28日02-10時:100度から6ノットの風
10-20時:060度から17ノット、突風28ノット
20時-29日02時:100度から8ノットの風

サイパン空港
TAF PGSN 281124Z 2812/2912 07016G26KT P6SM VCSH SCT018
     FM290100 08018G28KT P6SM VCSH SCT025
     FM290900 07015G25KT P6SM VCSH SCT018
マリアナ時間28日22時-29日11時:070度から16ノット、突風26ノット
11-19時:080度から18ノット、突風28ノット
19-22時:070度から15ノット、突風25ノット

ジャンル:
お天気
コメント   この記事についてブログを書く
« 2/27-2/28の航空気象通報(国... | トップ | 2/29-3/1の航空気象通報(国内... »
最近の画像もっと見る

コメントを投稿

ブログ作成者から承認されるまでコメントは反映されません。

TAF」カテゴリの最新記事